Time;durP1;ratioP1;P1;durP2;ratioP2;P2;SDS_P1;SDS_P2;PMS_P1;PMS_P2;Temp;Humidity;BMP_temperature;BMP_pressure;BME280_temperature;BME280_humidity;BME280_pressure;Samples;Min_cycle;Max_cycle;Signal;HPM_P1;HPM_P2
2023/03/06 00:00:06;;;;;;;9.07;4.70;;;4.10;99.90;;;;;;5073511;28;20419;-57
2023/03/06 00:02:33;;;;;;;7.68;4.63;;;4.10;99.90;;;;;;5074008;28;20455;-57
2023/03/06 00:05:00;;;;;;;8.68;4.68;;;4.10;99.90;;;;;;5074443;28;20751;-57
2023/03/06 00:07:27;;;;;;;7.03;3.40;;;4.10;99.90;;;;;;5073376;28;20430;-57
2023/03/06 00:09:54;;;;;;;8.40;5.03;;;4.20;99.90;;;;;;5073461;28;20419;-55
2023/03/06 00:12:22;;;;;;;8.17;4.03;;;4.20;99.90;;;;;;5074590;28;20472;-58
2023/03/06 00:14:49;;;;;;;10.15;5.00;;;4.10;99.90;;;;;;5075085;28;20422;-55
2023/03/06 00:17:16;;;;;;;7.32;4.70;;;4.00;99.90;;;;;;5074659;28;20443;-56
2023/03/06 00:19:43;;;;;;;6.22;4.15;;;4.00;99.90;;;;;;5073758;28;20415;-56
2023/03/06 00:22:13;;;;;;;8.10;3.83;;;4.10;99.90;;;;;;5074417;28;20427;-55
2023/03/06 00:24:41;;;;;;;9.13;5.17;;;4.00;99.90;;;;;;5073895;28;20484;-56
2023/03/06 00:27:08;;;;;;;8.13;4.22;;;3.90;99.90;;;;;;5073973;28;20465;-57
2023/03/06 00:29:37;;;;;;;7.75;4.50;;;3.90;99.90;;;;;;5074392;28;20880;-58
2023/03/06 00:32:04;;;;;;;9.35;4.38;;;3.90;99.90;;;;;;5074635;28;20854;-55
2023/03/06 00:34:31;;;;;;;6.90;4.70;;;4.00;99.90;;;;;;5074493;28;20839;-55
2023/03/06 00:36:58;;;;;;;6.18;4.05;;;4.00;99.90;;;;;;5072979;28;20493;-58
2023/03/06 00:39:25;;;;;;;8.95;4.15;;;4.00;99.90;;;;;;5072669;28;20474;-56
2023/03/06 00:41:52;;;;;;;7.03;3.80;;;4.00;99.90;;;;;;5074213;28;20847;-56
2023/03/06 00:44:19;;;;;;;7.60;4.20;;;4.00;99.90;;;;;;5074211;28;20419;-58
2023/03/06 00:46:47;;;;;;;7.43;4.07;;;3.90;99.90;;;;;;5073932;28;20423;-57
2023/03/06 00:49:14;;;;;;;8.32;4.60;;;3.90;99.90;;;;;;5072914;28;20420;-57
2023/03/06 00:51:41;;;;;;;5.95;3.47;;;3.90;99.90;;;;;;5074529;28;20450;-56
2023/03/06 00:54:08;;;;;;;7.40;4.60;;;3.80;99.90;;;;;;5077749;28;20959;-56
2023/03/06 00:56:35;;;;;;;8.00;3.90;;;3.80;99.90;;;;;;5077185;28;20435;-57
2023/03/06 00:59:02;;;;;;;7.90;3.55;;;3.80;99.90;;;;;;5077044;28;20421;-56
2023/03/06 01:01:29;;;;;;;7.07;3.28;;;3.80;99.90;;;;;;5077820;28;20431;-57
2023/03/06 01:03:58;;;;;;;5.00;2.80;;;3.80;99.90;;;;;;5078538;28;20420;-56
2023/03/06 01:06:25;;;;;;;6.57;3.40;;;3.80;99.90;;;;;;5077417;28;20450;-55
2023/03/06 01:08:52;;;;;;;9.80;4.13;;;3.90;99.90;;;;;;5077905;28;20420;-56
2023/03/06 01:11:19;;;;;;;7.70;3.83;;;3.90;99.90;;;;;;5078438;28;20428;-55
2023/03/06 01:13:46;;;;;;;6.30;3.78;;;3.90;99.90;;;;;;5078762;28;20823;-57
2023/03/06 01:16:17;;;;;;;6.95;3.75;;;4.00;99.90;;;;;;5078287;28;20843;-58
2023/03/06 01:18:45;;;;;;;9.43;4.00;;;4.00;99.90;;;;;;5078107;28;20431;-56
2023/03/06 01:21:14;;;;;;;6.85;3.70;;;4.00;99.90;;;;;;5077482;28;20858;-54
2023/03/06 01:23:41;;;;;;;7.47;3.90;;;3.90;99.90;;;;;;5077946;28;20426;-57
2023/03/06 01:26:08;;;;;;;7.30;3.45;;;4.00;99.90;;;;;;5077317;28;20423;-55
2023/03/06 01:28:37;;;;;;;10.97;4.43;;;4.00;99.90;;;;;;5077784;28;20828;-56
2023/03/06 01:31:05;;;;;;;7.50;3.65;;;4.20;99.90;;;;;;5076433;28;20431;-58
2023/03/06 01:33:33;;;;;;;6.47;3.30;;;4.20;99.90;;;;;;5076715;28;20423;-57
2023/03/06 01:36:00;;;;;;;7.00;3.63;;;4.10;99.90;;;;;;5075982;28;20430;-57
2023/03/06 01:38:28;;;;;;;7.30;3.53;;;4.10;99.90;;;;;;5077037;28;20435;-57
2023/03/06 01:40:55;;;;;;;6.45;3.63;;;4.10;99.90;;;;;;5076809;28;20477;-56
2023/03/06 01:43:28;;;;;;;7.35;3.95;;;4.10;99.90;;;;;;5077748;28;20419;-57
2023/03/06 01:46:24;;;;;;;6.33;2.70;;;4.00;99.90;;;;;;5077527;28;20431;-55
2023/03/06 01:48:55;;;;;;;6.65;2.90;;;4.10;99.90;;;;;;5077011;28;20418;-55
2023/03/06 01:51:25;;;;;;;5.93;2.40;;;4.30;99.90;;;;;;5077406;28;20541;-55
2023/03/06 01:53:54;;;;;;;5.20;2.83;;;4.30;99.90;;;;;;5077960;28;20846;-57
2023/03/06 01:56:22;;;;;;;6.40;2.75;;;4.30;99.90;;;;;;5077502;28;20846;-52
2023/03/06 01:58:50;;;;;;;5.90;2.70;;;4.30;99.90;;;;;;5077428;28;20523;-55
2023/03/06 02:01:18;;;;;;;5.45;2.90;;;4.30;99.90;;;;;;5077531;28;20435;-56
2023/03/06 02:03:46;;;;;;;4.32;2.20;;;4.30;99.90;;;;;;5075835;28;20423;-55
2023/03/06 02:06:18;;;;;;;5.78;3.30;;;4.30;99.90;;;;;;5077015;28;20431;-56
2023/03/06 02:08:46;;;;;;;5.65;2.60;;;4.30;99.90;;;;;;5077270;28;20416;-57
2023/03/06 02:11:18;;;;;;;4.80;2.70;;;4.40;99.90;;;;;;5077047;28;20761;-55
2023/03/06 02:13:45;;;;;;;6.07;2.97;;;4.40;99.90;;;;;;5076907;28;20427;-56
2023/03/06 02:16:14;;;;;;;9.02;2.78;;;4.30;99.90;;;;;;5077057;28;20727;-56
2023/03/06 02:18:43;;;;;;;7.10;3.27;;;4.10;99.90;;;;;;5076802;28;20431;-56
2023/03/06 02:21:19;;;;;;;3.60;2.22;;;4.10;99.90;;;;;;5076426;28;20735;-57
2023/03/06 02:23:53;;;;;;;7.32;2.90;;;4.10;99.90;;;;;;5076693;28;20423;-58
2023/03/06 02:26:22;;;;;;;6.50;3.20;;;4.10;99.90;;;;;;5077037;28;20439;-57
2023/03/06 02:28:49;;;;;;;7.07;3.28;;;4.00;99.90;;;;;;5076818;28;20419;-56
2023/03/06 02:31:23;;;;;;;4.53;2.70;;;3.80;99.90;;;;;;5077123;28;20729;-58
2023/03/06 02:34:02;;;;;;;5.00;2.63;;;3.70;99.90;;;;;;5075989;28;20423;-56
2023/03/06 02:36:30;;;;;;;5.65;3.63;;;3.70;99.90;;;;;;5076588;28;20432;-57
2023/03/06 02:38:58;;;;;;;5.25;3.15;;;3.80;99.90;;;;;;5076541;28;20431;-57
2023/03/06 02:41:27;;;;;;;5.05;2.40;;;3.70;99.90;;;;;;5076334;28;20432;-58
2023/03/06 02:43:54;;;;;;;6.15;2.80;;;3.70;99.90;;;;;;5076135;28;20420;-57
2023/03/06 02:46:21;;;;;;;5.40;2.50;;;3.70;99.90;;;;;;5075880;28;20435;-57
2023/03/06 02:48:48;;;;;;;5.20;2.47;;;3.70;99.90;;;;;;5076644;28;20839;-56
2023/03/06 02:51:15;;;;;;;4.07;2.10;;;3.70;99.90;;;;;;5075059;28;20427;-57
2023/03/06 02:53:42;;;;;;;6.10;2.67;;;3.80;99.90;;;;;;5075844;28;20843;-56
2023/03/06 02:56:09;;;;;;;5.32;2.30;;;3.80;99.90;;;;;;5076340;28;20434;-55
2023/03/06 02:58:38;;;;;;;5.40;2.58;;;3.80;99.90;;;;;;5075439;28;20432;-56
2023/03/06 03:01:05;;;;;;;5.15;2.55;;;4.00;99.90;;;;;;5075590;28;20428;-56
2023/03/06 03:03:33;;;;;;;5.82;2.50;;;4.10;99.90;;;;;;5075798;28;20423;-55
2023/03/06 03:06:00;;;;;;;5.38;3.05;;;4.10;99.90;;;;;;5076085;28;20463;-54
2023/03/06 03:08:27;;;;;;;4.85;2.33;;;4.20;99.90;;;;;;5075894;28;20851;-58
2023/03/06 03:10:55;;;;;;;4.47;2.35;;;4.10;99.90;;;;;;5075415;28;20427;-54
2023/03/06 03:13:22;;;;;;;3.97;1.90;;;4.00;99.90;;;;;;5075767;28;20439;-58
2023/03/06 03:15:59;;;;;;;5.97;3.20;;;3.90;99.90;;;;;;5075301;28;20431;-56
2023/03/06 03:18:26;;;;;;;6.03;2.97;;;4.00;99.90;;;;;;5075432;28;20435;-55
2023/03/06 03:20:54;;;;;;;5.10;2.47;;;4.00;99.90;;;;;;5075553;28;20428;-59
2023/03/06 03:23:21;;;;;;;4.18;2.42;;;3.90;99.90;;;;;;5075408;28;20426;-57
2023/03/06 03:25:48;;;;;;;4.63;2.33;;;4.00;99.90;;;;;;5075689;28;20435;-56
2023/03/06 03:28:15;;;;;;;4.03;2.40;;;3.90;99.90;;;;;;5075516;28;20832;-57
2023/03/06 03:30:42;;;;;;;4.93;1.88;;;4.00;99.90;;;;;;5075515;28;20827;-56
2023/03/06 03:33:11;;;;;;;3.63;1.95;;;4.00;99.90;;;;;;5075839;28;20878;-57
2023/03/06 03:35:39;;;;;;;4.18;2.50;;;3.90;99.90;;;;;;5074482;28;20432;-57
2023/03/06 03:38:06;;;;;;;3.83;1.98;;;4.00;99.90;;;;;;5075173;28;20431;-58
2023/03/06 03:40:33;;;;;;;6.80;2.40;;;4.20;99.90;;;;;;5075245;28;20416;-57
2023/03/06 03:43:00;;;;;;;5.77;2.63;;;4.20;99.90;;;;;;5075054;28;20946;-57
2023/03/06 03:45:27;;;;;;;3.80;2.13;;;4.10;99.90;;;;;;5075055;28;20423;-56
2023/03/06 03:47:54;;;;;;;5.47;2.60;;;4.10;99.90;;;;;;5074968;28;20431;-58
2023/03/06 03:50:23;;;;;;;4.28;2.20;;;4.00;99.90;;;;;;5075472;28;20847;-57
2023/03/06 03:52:50;;;;;;;5.47;2.40;;;4.10;99.90;;;;;;5075167;28;20423;-55
2023/03/06 03:55:17;;;;;;;5.00;2.42;;;4.00;99.90;;;;;;5075066;28;20654;-58
2023/03/06 03:57:44;;;;;;;4.23;2.20;;;4.00;99.90;;;;;;5073456;28;20431;-57
2023/03/06 04:00:15;;;;;;;4.68;2.28;;;4.10;99.90;;;;;;5073608;28;20412;-58
2023/03/06 04:02:42;;;;;;;5.40;2.30;;;4.10;99.90;;;;;;5073913;28;20442;-56
2023/03/06 04:05:11;;;;;;;5.15;2.40;;;4.10;99.90;;;;;;5073403;28;20423;-55
2023/03/06 04:07:40;;;;;;;4.93;2.40;;;4.00;99.90;;;;;;5073699;28;20851;-55
2023/03/06 04:10:09;;;;;;;3.40;1.70;;;3.90;99.90;;;;;;5073312;28;20425;-53
2023/03/06 04:12:36;;;;;;;4.18;1.80;;;4.00;99.90;;;;;;5073652;28;20902;-57
2023/03/06 04:15:07;;;;;;;5.28;2.00;;;3.90;99.90;;;;;;5073749;28;20426;-54
2023/03/06 04:17:34;;;;;;;3.90;2.10;;;4.00;99.90;;;;;;5073906;28;20431;-58
2023/03/06 04:20:01;;;;;;;4.20;2.10;;;4.00;99.90;;;;;;5073312;28;20419;-58
2023/03/06 04:22:28;;;;;;;6.30;2.58;;;4.00;99.90;;;;;;5073591;28;20803;-57
2023/03/06 04:24:57;;;;;;;3.45;1.75;;;3.90;99.90;;;;;;5073229;28;20421;-58
2023/03/06 04:27:24;;;;;;;5.47;2.08;;;4.00;99.90;;;;;;5073248;28;20434;-57
2023/03/06 04:29:52;;;;;;;5.30;2.23;;;3.90;99.90;;;;;;5074651;28;20783;-57
2023/03/06 04:32:20;;;;;;;3.53;1.77;;;4.00;99.90;;;;;;5074532;28;20427;-58
2023/03/06 04:34:47;;;;;;;5.53;2.23;;;4.10;99.90;;;;;;5073608;28;20791;-56
2023/03/06 04:37:19;;;;;;;4.47;1.90;;;4.10;99.90;;;;;;5074142;28;20427;-57
2023/03/06 04:39:46;;;;;;;5.00;1.70;;;4.00;99.90;;;;;;5073954;28;20431;-57
2023/03/06 04:42:15;;;;;;;5.43;2.30;;;4.00;99.90;;;;;;5074028;28;20434;-57
2023/03/06 04:44:42;;;;;;;3.90;1.73;;;4.10;99.90;;;;;;5074842;28;20415;-54
2023/03/06 04:47:09;;;;;;;2.93;1.70;;;4.00;99.90;;;;;;5073921;28;20431;-54
2023/03/06 04:49:37;;;;;;;4.32;2.03;;;4.00;99.90;;;;;;5074787;28;20416;-58
2023/03/06 04:52:05;;;;;;;4.28;1.70;;;4.00;99.90;;;;;;5074738;28;20427;-56
2023/03/06 04:54:32;;;;;;;4.20;1.77;;;4.10;99.90;;;;;;5074106;28;20419;-57
2023/03/06 04:56:59;;;;;;;4.15;1.75;;;4.00;99.90;;;;;;5074135;28;20431;-58
2023/03/06 04:59:27;;;;;;;3.45;1.73;;;4.00;99.90;;;;;;5073738;28;20739;-58
2023/03/06 05:01:54;;;;;;;5.85;1.58;;;4.20;99.90;;;;;;5074629;28;20431;-58
2023/03/06 05:04:21;;;;;;;3.58;1.67;;;4.20;99.90;;;;;;5074018;28;20419;-56
2023/03/06 05:06:49;;;;;;;3.07;1.60;;;4.30;99.90;;;;;;5074418;28;20522;-58
2023/03/06 05:09:16;;;;;;;3.40;1.70;;;4.30;99.90;;;;;;5074416;28;20423;-58
2023/03/06 05:11:43;;;;;;;3.38;1.60;;;4.30;99.90;;;;;;5074656;28;20476;-58
2023/03/06 05:14:10;;;;;;;3.00;1.40;;;4.40;99.90;;;;;;5074101;28;20419;-59
2023/03/06 05:16:38;;;;;;;2.80;1.60;;;4.30;99.90;;;;;;5074049;28;20427;-55
2023/03/06 05:19:05;;;;;;;3.10;1.40;;;4.20;99.90;;;;;;5073862;28;20846;-57
2023/03/06 05:21:33;;;;;;;3.13;1.70;;;4.30;99.90;;;;;;5073363;28;20438;-58
2023/03/06 05:24:00;;;;;;;2.72;1.50;;;4.40;99.90;;;;;;5078416;28;20521;-57
2023/03/06 05:26:27;;;;;;;3.65;1.70;;;4.40;99.90;;;;;;5094461;28;20432;-57
2023/03/06 05:28:54;;;;;;;2.60;1.40;;;4.40;99.90;;;;;;5094178;28;20837;-56
2023/03/06 05:31:21;;;;;;;3.10;1.60;;;4.30;99.90;;;;;;5094192;28;20425;-54
2023/03/06 05:33:49;;;;;;;4.10;1.50;;;4.20;99.90;;;;;;5092627;28;20418;-57
2023/03/06 05:36:16;;;;;;;6.07;2.22;;;4.30;99.90;;;;;;5093499;28;20433;-55
2023/03/06 05:38:43;;;;;;;3.40;1.38;;;4.40;99.90;;;;;;5095400;28;20426;-55
2023/03/06 05:41:12;;;;;;;3.22;1.70;;;4.40;99.90;;;;;;5095707;28;20463;-56
2023/03/06 05:43:40;;;;;;;3.40;1.60;;;4.30;99.90;;;;;;5093895;28;20453;-57
2023/03/06 05:46:07;;;;;;;3.88;1.80;;;4.30;99.90;;;;;;5093575;28;20891;-56
2023/03/06 05:48:36;;;;;;;3.50;1.50;;;4.30;99.90;;;;;;5095267;28;20421;-55
2023/03/06 05:51:05;;;;;;;3.25;1.50;;;4.30;99.90;;;;;;5096458;28;20426;-57
2023/03/06 05:53:33;;;;;;;3.50;1.80;;;4.30;99.90;;;;;;5095487;28;20433;-59
2023/03/06 05:56:02;;;;;;;3.50;1.52;;;4.40;99.90;;;;;;5096189;28;20421;-58
2023/03/06 05:58:30;;;;;;;4.47;1.67;;;4.30;99.90;;;;;;5093915;28;20845;-56
2023/03/06 06:00:57;;;;;;;2.70;1.50;;;4.30;99.90;;;;;;5086744;28;20437;-56
2023/03/06 06:03:25;;;;;;;3.33;1.40;;;4.50;99.90;;;;;;5096526;28;20417;-55
2023/03/06 06:05:52;;;;;;;3.58;1.40;;;4.60;99.90;;;;;;5096024;28;20430;-58
2023/03/06 06:08:21;;;;;;;2.67;1.55;;;4.60;99.90;;;;;;5092306;28;20452;-58
2023/03/06 06:10:48;;;;;;;3.15;1.60;;;4.40;99.90;;;;;;5094371;28;20491;-58
2023/03/06 06:13:15;;;;;;;3.65;1.42;;;4.20;99.90;;;;;;5095178;28;20417;-56
2023/03/06 06:15:42;;;;;;;3.40;1.50;;;4.10;99.90;;;;;;5094308;28;20449;-52
2023/03/06 06:18:09;;;;;;;4.23;1.70;;;4.10;99.90;;;;;;5095722;28;20414;-56
2023/03/06 06:20:37;;;;;;;3.85;1.70;;;4.00;99.90;;;;;;5093128;28;20422;-56
2023/03/06 06:23:04;;;;;;;3.15;1.40;;;3.90;99.90;;;;;;5095922;28;20409;-56
2023/03/06 06:25:33;;;;;;;3.65;1.90;;;4.00;99.90;;;;;;5093533;28;20421;-53
2023/03/06 06:28:00;;;;;;;4.25;1.70;;;3.90;99.90;;;;;;5095222;28;20418;-55
2023/03/06 06:30:28;;;;;;;3.45;2.05;;;3.90;99.90;;;;;;5093404;28;20879;-56
2023/03/06 06:32:55;;;;;;;3.60;1.77;;;3.80;99.90;;;;;;5093373;28;20422;-56
2023/03/06 06:35:22;;;;;;;3.92;1.77;;;3.80;99.90;;;;;;5091020;28;20487;-55
2023/03/06 06:37:49;;;;;;;4.05;1.70;;;3.90;99.90;;;;;;5092876;28;20440;-57
2023/03/06 06:40:17;;;;;;;3.80;1.83;;;3.80;99.90;;;;;;5092709;28;20715;-57
2023/03/06 06:42:46;;;;;;;5.80;2.13;;;3.80;99.90;;;;;;5089424;28;20607;-56
2023/03/06 06:45:13;;;;;;;4.57;1.40;;;3.90;99.90;;;;;;5083213;28;20536;-56
2023/03/06 06:47:41;;;;;;;3.50;1.60;;;4.00;99.90;;;;;;5090245;28;20421;-56
2023/03/06 06:50:12;;;;;;;3.13;1.50;;;4.00;99.90;;;;;;5089170;28;20703;-55
2023/03/06 06:52:39;;;;;;;3.70;1.38;;;4.00;99.90;;;;;;5088925;28;20525;-56
2023/03/06 06:55:07;;;;;;;4.45;1.42;;;3.90;99.90;;;;;;5092303;28;20866;-56
2023/03/06 06:57:34;;;;;;;4.32;2.20;;;3.90;99.90;;;;;;5092888;28;20707;-56
2023/03/06 07:00:02;;;;;;;4.90;1.90;;;3.80;99.90;;;;;;5092738;28;21008;-57
2023/03/06 07:02:31;;;;;;;4.50;1.90;;;3.80;99.90;;;;;;5093210;28;20491;-53
2023/03/06 07:04:58;;;;;;;4.97;2.17;;;3.70;99.90;;;;;;5087886;28;20437;-57
2023/03/06 07:07:25;;;;;;;4.70;2.03;;;3.80;99.90;;;;;;5093478;28;20437;-56
2023/03/06 07:09:52;;;;;;;4.55;1.98;;;3.90;99.90;;;;;;5092974;28;20421;-56
2023/03/06 07:12:19;;;;;;;4.20;1.73;;;4.00;99.90;;;;;;5090997;28;20693;-55
2023/03/06 07:14:47;;;;;;;4.25;1.50;;;4.10;99.90;;;;;;5088281;28;20551;-54
2023/03/06 07:17:15;;;;;;;3.30;1.70;;;4.10;99.90;;;;;;5092484;28;20434;-54
2023/03/06 07:19:42;;;;;;;7.17;2.07;;;4.10;99.90;;;;;;5093248;28;20845;-53
2023/03/06 07:22:09;;;;;;;4.22;1.70;;;4.10;99.90;;;;;;5094437;28;20433;-55
2023/03/06 07:24:36;;;;;;;5.00;1.90;;;4.10;99.90;;;;;;5092044;28;20434;-56
2023/03/06 07:27:04;;;;;;;5.22;1.80;;;4.10;99.90;;;;;;5092685;28;20426;-53
2023/03/06 07:29:32;;;;;;;4.05;1.70;;;4.10;99.90;;;;;;5094213;28;20425;-53
2023/03/06 07:31:59;;;;;;;3.70;2.00;;;4.20;99.90;;;;;;5091572;28;20463;-53
2023/03/06 07:34:28;;;;;;;4.20;1.98;;;4.20;99.90;;;;;;5088388;28;20439;-53
2023/03/06 07:36:55;;;;;;;6.40;1.90;;;4.20;99.90;;;;;;5083402;28;20439;-52
2023/03/06 07:39:22;;;;;;;4.03;1.80;;;4.20;99.90;;;;;;5074031;28;20435;-52
2023/03/06 07:41:50;;;;;;;5.38;1.90;;;4.30;99.90;;;;;;5085454;28;20546;-55
2023/03/06 07:44:18;;;;;;;3.83;1.55;;;4.30;99.90;;;;;;5085673;28;20445;-53
2023/03/06 07:46:45;;;;;;;4.88;1.70;;;4.40;99.90;;;;;;5086011;28;20439;-53
2023/03/06 07:49:12;;;;;;;4.20;1.90;;;4.40;99.90;;;;;;5070911;28;20419;-54
2023/03/06 07:51:40;;;;;;;3.80;1.50;;;4.70;99.90;;;;;;5071853;28;20439;-55
2023/03/06 07:54:07;;;;;;;2.97;1.30;;;4.60;99.90;;;;;;5079176;28;20730;-52
2023/03/06 07:56:34;;;;;;;4.10;1.80;;;4.60;99.90;;;;;;5088912;28;20860;-57
2023/03/06 07:59:02;;;;;;;5.68;2.10;;;4.60;99.90;;;;;;5093067;28;20468;-58
2023/03/06 08:01:29;;;;;;;3.20;1.57;;;4.70;99.90;;;;;;5090714;28;20425;-59
2023/03/06 08:03:56;;;;;;;3.78;1.90;;;5.00;99.90;;;;;;5086198;28;20448;-57
2023/03/06 08:06:25;;;;;;;4.07;1.92;;;5.10;99.90;;;;;;5084660;28;20414;-58
2023/03/06 08:08:55;;;;;;;4.20;1.60;;;5.00;99.90;;;;;;5078671;28;20448;-58
2023/03/06 08:11:24;;;;;;;4.13;1.98;;;4.90;99.90;;;;;;5075228;28;20439;-56
2023/03/06 08:13:52;;;;;;;4.75;1.75;;;4.90;99.90;;;;;;5087800;28;20429;-58
2023/03/06 08:16:20;;;;;;;3.00;1.70;;;5.00;99.90;;;;;;5089955;28;20509;-56
2023/03/06 08:18:47;;;;;;;4.97;1.83;;;5.00;99.90;;;;;;5091562;28;20458;-55
2023/03/06 08:21:17;;;;;;;2.63;1.30;;;5.10;99.90;;;;;;5092678;28;20433;-53
2023/03/06 08:23:44;;;;;;;3.55;1.48;;;4.90;99.90;;;;;;5089553;28;20717;-56
2023/03/06 08:26:15;;;;;;;2.47;1.55;;;5.30;99.90;;;;;;5092139;28;20776;-55
2023/03/06 08:28:42;;;;;;;3.95;1.40;;;5.40;99.90;;;;;;5091023;28;20726;-58
2023/03/06 08:31:12;;;;;;;3.40;1.25;;;5.40;99.90;;;;;;5090464;28;20836;-55
2023/03/06 08:33:39;;;;;;;3.35;1.33;;;5.70;99.90;;;;;;5092309;28;20416;-55
2023/03/06 08:36:07;;;;;;;2.75;1.20;;;6.20;99.90;;;;;;5091227;28;20433;-56
2023/03/06 08:38:34;;;;;;;2.65;1.10;;;6.00;99.90;;;;;;5090238;28;20422;-56
2023/03/06 08:41:01;;;;;;;1.77;1.20;;;6.30;99.90;;;;;;5091477;28;20425;-56
2023/03/06 08:43:30;;;;;;;2.90;1.20;;;6.10;99.90;;;;;;5090642;28;20422;-57
2023/03/06 08:45:58;;;;;;;2.95;1.20;;;6.30;99.90;;;;;;5090886;28;20425;-57
2023/03/06 08:48:26;;;;;;;1.80;1.10;;;6.50;99.90;;;;;;5091643;28;20834;-56
2023/03/06 08:50:54;;;;;;;2.20;1.10;;;6.50;99.90;;;;;;5089158;28;20433;-57
2023/03/06 08:53:22;;;;;;;2.53;1.20;;;6.50;99.90;;;;;;5091234;28;20441;-58
2023/03/06 08:55:49;;;;;;;1.98;1.20;;;6.20;99.90;;;;;;5078500;28;20876;-55
2023/03/06 08:58:16;;;;;;;2.20;1.10;;;6.20;99.90;;;;;;5086346;28;20425;-56
2023/03/06 09:00:44;;;;;;;2.38;1.17;;;6.10;99.90;;;;;;5083888;28;20457;-52
2023/03/06 09:03:11;;;;;;;3.30;1.20;;;6.30;99.90;;;;;;5090251;28;20505;-55
2023/03/06 09:05:40;;;;;;;2.40;1.20;;;6.20;99.90;;;;;;5089454;28;20437;-55
2023/03/06 09:08:07;;;;;;;2.40;1.23;;;6.00;99.90;;;;;;5088560;28;20425;-54
2023/03/06 09:10:34;;;;;;;4.00;1.35;;;6.00;99.90;;;;;;5089448;28;20436;-56
2023/03/06 09:13:02;;;;;;;2.30;1.17;;;6.00;99.90;;;;;;5091851;28;20414;-55
2023/03/06 09:15:29;;;;;;;2.70;1.40;;;5.90;99.90;;;;;;5095903;28;20425;-52
2023/03/06 09:17:57;;;;;;;2.83;1.27;;;6.10;99.90;;;;;;5094084;28;20433;-52
2023/03/06 09:20:24;;;;;;;2.30;1.10;;;6.30;99.90;;;;;;5095409;28;20425;-52
2023/03/06 09:22:51;;;;;;;1.90;1.00;;;6.30;99.90;;;;;;5095039;28;20424;-56
2023/03/06 09:25:22;;;;;;;3.30;1.30;;;6.40;99.90;;;;;;5095750;28;20413;-55
2023/03/06 09:27:50;;;;;;;3.00;1.40;;;6.40;99.90;;;;;;5095800;28;20471;-56
2023/03/06 09:30:18;;;;;;;2.90;1.42;;;6.10;99.90;;;;;;5096381;28;20421;-56
2023/03/06 09:32:45;;;;;;;2.10;1.20;;;6.20;99.90;;;;;;5091355;28;20909;-54
2023/03/06 09:35:14;;;;;;;2.22;1.20;;;6.20;99.90;;;;;;5095005;28;20422;-53
2023/03/06 09:37:41;;;;;;;2.40;1.15;;;6.10;99.90;;;;;;5080077;28;20455;-53
2023/03/06 09:40:16;;;;;;;2.28;1.00;;;6.10;99.90;;;;;;5075166;28;20481;-55
2023/03/06 09:42:43;;;;;;;2.33;1.10;;;6.20;99.90;;;;;;5075369;28;20785;-56
2023/03/06 09:45:13;;;;;;;2.42;1.30;;;6.30;99.90;;;;;;5083213;28;20493;-55
2023/03/06 09:47:51;;;;;;;3.25;1.60;;;6.30;99.90;;;;;;5096397;28;20437;-52
2023/03/06 09:50:35;;;;;;;2.92;1.25;;;6.20;99.90;;;;;;5095281;28;20914;-53
2023/03/06 09:53:13;;;;;;;2.20;1.20;;;6.30;99.90;;;;;;5093752;28;20737;-55
2023/03/06 09:55:42;;;;;;;2.80;1.25;;;6.30;99.90;;;;;;5094684;28;20473;-54
2023/03/06 09:58:16;;;;;;;3.10;1.10;;;6.50;99.90;;;;;;5094935;28;20422;-55
2023/03/06 10:00:49;;;;;;;2.30;1.13;;;6.50;99.90;;;;;;5093604;28;20432;-54
2023/03/06 10:03:21;;;;;;;2.50;1.10;;;6.30;99.90;;;;;;5092977;28;21036;-53
2023/03/06 10:05:57;;;;;;;2.70;1.20;;;6.20;99.90;;;;;;5093764;28;20453;-54
2023/03/06 10:08:29;;;;;;;2.83;1.40;;;6.30;99.90;;;;;;5094937;28;20888;-53
2023/03/06 10:11:01;;;;;;;2.30;1.10;;;6.40;99.90;;;;;;5094393;28;20425;-52
2023/03/06 10:13:35;;;;;;;2.50;1.10;;;6.40;99.90;;;;;;5093275;28;20823;-52
2023/03/06 10:16:15;;;;;;;2.15;1.00;;;6.40;99.90;;;;;;5094033;28;20434;-53
2023/03/06 10:18:42;;;;;;;1.90;1.10;;;6.50;99.90;;;;;;5095326;28;20425;-53
2023/03/06 10:21:28;;;;;;;2.40;1.10;;;6.50;99.90;;;;;;5094844;28;20434;-55
2023/03/06 10:24:04;;;;;;;2.35;1.20;;;6.70;99.90;;;;;;5093653;28;20414;-53
2023/03/06 10:26:37;;;;;;;2.60;1.20;;;6.40;99.90;;;;;;5093645;28;20430;-54
2023/03/06 10:29:30;;;;;;;1.73;1.05;;;6.30;99.90;;;;;;5095035;28;20429;-53
2023/03/06 10:32:02;;;;;;;1.73;1.00;;;5.90;99.90;;;;;;5092294;28;20472;-54
2023/03/06 10:34:35;;;;;;;2.50;1.10;;;5.90;99.90;;;;;;5084145;28;20432;-52
2023/03/06 10:37:14;;;;;;;1.93;1.03;;;5.90;99.90;;;;;;5090623;28;20897;-51
2023/03/06 10:39:41;;;;;;;2.47;1.10;;;6.00;99.90;;;;;;5089441;28;20496;-55
2023/03/06 10:42:09;;;;;;;2.10;1.00;;;6.10;99.90;;;;;;5089792;28;21049;-55
2023/03/06 10:44:36;;;;;;;3.00;1.15;;;6.20;99.90;;;;;;5094564;28;20414;-56
2023/03/06 10:47:27;;;;;;;2.10;0.90;;;6.30;99.90;;;;;;5092852;28;20446;-52
2023/03/06 10:49:58;;;;;;;3.17;1.20;;;6.30;99.90;;;;;;5087020;28;20490;-52
2023/03/06 10:52:29;;;;;;;1.85;1.10;;;6.40;99.90;;;;;;5092669;28;20525;-50
2023/03/06 10:55:24;;;;;;;1.90;1.10;;;6.30;99.90;;;;;;5093949;28;20854;-48
2023/03/06 10:57:51;;;;;;;1.50;1.00;;;6.20;99.90;;;;;;5072533;28;20416;-54
2023/03/06 11:00:29;;;;;;;1.87;1.00;;;6.40;99.90;;;;;;5085112;28;20434;-51
2023/03/06 11:03:15;;;;;;;2.27;1.20;;;6.40;99.90;;;;;;5085323;28;20458;-54
2023/03/06 11:05:55;;;;;;;1.90;1.00;;;6.30;99.90;;;;;;5093790;28;20436;-55
2023/03/06 11:08:24;;;;;;;2.00;1.00;;;6.40;99.90;;;;;;5088418;28;20438;-52
2023/03/06 11:11:00;;;;;;;2.80;1.10;;;6.40;99.90;;;;;;5090088;28;20434;-55
2023/03/06 11:13:33;;;;;;;2.67;1.10;;;6.60;99.90;;;;;;5087067;28;20445;-55
2023/03/06 11:16:03;;;;;;;1.75;1.13;;;6.60;99.90;;;;;;5085536;28;20438;-55
2023/03/06 11:18:36;;;;;;;2.03;1.13;;;6.60;99.90;;;;;;5089537;28;20437;-52
2023/03/06 11:21:07;;;;;;;2.60;1.13;;;6.60;99.90;;;;;;5085519;28;20559;-56
2023/03/06 11:23:42;;;;;;;4.05;1.30;;;7.00;99.90;;;;;;5089407;28;20441;-55
2023/03/06 11:26:28;;;;;;;4.47;1.53;;;7.10;99.90;;;;;;5086310;28;20513;-53
2023/03/06 11:29:15;;;;;;;3.55;1.23;;;7.30;99.90;;;;;;5087445;28;20437;-54
2023/03/06 11:31:49;;;;;;;2.70;1.10;;;7.40;99.90;;;;;;5075368;28;20441;-55
2023/03/06 11:34:22;;;;;;;2.30;1.20;;;7.30;99.90;;;;;;5092893;28;20733;-55
2023/03/06 11:36:55;;;;;;;3.20;1.40;;;7.40;99.90;;;;;;5085456;28;20458;-56
2023/03/06 11:39:31;;;;;;;2.50;1.10;;;7.40;99.90;;;;;;5081890;28;20506;-55
2023/03/06 11:42:05;;;;;;;2.90;1.27;;;7.50;99.90;;;;;;5090674;28;20453;-54
2023/03/06 11:44:50;;;;;;;2.47;1.10;;;7.50;99.90;;;;;;5081900;28;20433;-55
2023/03/06 11:47:19;;;;;;;2.63;1.25;;;7.20;99.90;;;;;;5075850;28;20429;-56
2023/03/06 11:49:51;;;;;;;2.25;1.38;;;7.40;99.90;;;;;;5083143;28;20472;-55
2023/03/06 11:52:23;;;;;;;4.17;1.20;;;7.50;99.90;;;;;;5086840;28;20438;-53
2023/03/06 11:54:55;;;;;;;2.67;1.20;;;7.60;99.90;;;;;;5076052;28;20847;-55
2023/03/06 11:57:30;;;;;;;2.80;1.10;;;7.70;99.90;;;;;;5086289;28;20429;-54
2023/03/06 12:00:17;;;;;;;2.10;1.27;;;7.70;99.90;;;;;;5081075;28;20458;-54
2023/03/06 12:03:14;;;;;;;3.17;1.30;;;7.60;99.90;;;;;;5086242;28;20965;-54
2023/03/06 12:05:47;;;;;;;3.65;1.10;;;7.80;99.90;;;;;;5080112;28;20429;-51
2023/03/06 12:08:42;;;;;;;1.95;1.20;;;7.80;99.90;;;;;;5082987;28;20447;-54
2023/03/06 12:11:19;;;;;;;2.10;1.10;;;7.80;99.90;;;;;;5069941;28;20446;-53
2023/03/06 12:14:22;;;;;;;1.98;1.20;;;7.90;99.90;;;;;;5080230;28;20807;-51
2023/03/06 12:17:02;;;;;;;2.40;1.30;;;8.00;99.90;;;;;;5084593;28;20425;-53
2023/03/06 12:19:42;;;;;;;2.17;1.27;;;8.00;99.90;;;;;;5074621;28;20871;-55
2023/03/06 12:22:34;;;;;;;1.90;1.20;;;8.10;99.90;;;;;;5076220;28;20447;-52
2023/03/06 12:25:25;;;;;;;2.28;1.15;;;8.10;99.90;;;;;;5072136;28;20416;-54
2023/03/06 12:28:01;;;;;;;2.50;1.20;;;7.80;99.90;;;;;;5081259;28;20745;-56
2023/03/06 12:30:41;;;;;;;4.65;1.70;;;7.70;99.90;;;;;;5083829;28;20433;-55
2023/03/06 12:33:20;;;;;;;3.20;1.30;;;7.90;99.90;;;;;;5078305;28;20421;-51
2023/03/06 12:36:08;;;;;;;1.50;0.90;;;7.80;99.90;;;;;;5080635;28;20431;-53
2023/03/06 12:39:00;;;;;;;2.10;1.20;;;7.70;99.90;;;;;;5088170;28;20429;-54
2023/03/06 12:41:36;;;;;;;2.40;1.40;;;7.80;99.90;;;;;;5078618;28;20525;-54
2023/03/06 12:44:42;;;;;;;2.38;1.10;;;7.70;99.90;;;;;;5084641;28;20724;-52
2023/03/06 12:47:11;;;;;;;2.20;1.10;;;7.70;99.90;;;;;;5082876;28;20801;-53
2023/03/06 12:49:41;;;;;;;2.90;1.20;;;7.70;99.90;;;;;;5083787;28;20438;-55
2023/03/06 12:52:16;;;;;;;3.10;1.20;;;7.90;99.90;;;;;;5086739;28;20975;-55
2023/03/06 12:54:43;;;;;;;2.17;1.10;;;8.00;99.90;;;;;;5093596;28;20469;-56
2023/03/06 12:57:14;;;;;;;4.03;1.30;;;8.10;99.90;;;;;;5088877;28;20438;-54
2023/03/06 12:59:46;;;;;;;1.90;1.15;;;8.10;99.90;;;;;;5096318;28;20410;-54
2023/03/06 13:02:58;;;;;;;2.17;1.23;;;8.10;99.90;;;;;;5094742;28;20434;-53
2023/03/06 13:06:03;;;;;;;1.80;1.00;;;7.90;99.90;;;;;;5091485;28;20437;-55
2023/03/06 13:09:00;;;;;;;2.17;1.10;;;7.90;99.90;;;;;;5085830;28;20435;-53
2023/03/06 13:11:47;;;;;;;2.30;1.20;;;8.00;99.90;;;;;;5093692;28;20504;-54
2023/03/06 13:14:24;;;;;;;2.20;1.20;;;7.80;99.90;;;;;;5080532;28;20424;-53